Time;durP1;ratioP1;P1;durP2;ratioP2;P2;SDS_P1;SDS_P2;PMS_P1;PMS_P2;Temp;Humidity;BMP_temperature;BMP_pressure;BME280_temperature;BME280_humidity;BME280_pressure;Samples;Min_cycle;Max_cycle;Signal;HPM_P1;HPM_P2
2023/12/01 00:02:02;;;;;;;127.97;54.72;;;-1.00;99.90;;;;;;4987051;28;20076;-86
2023/12/01 00:04:27;;;;;;;125.07;53.03;;;-1.00;99.90;;;;;;4984175;28;20041;-86
2023/12/01 00:06:53;;;;;;;123.63;50.33;;;-1.00;99.90;;;;;;4981530;28;20035;-86
2023/12/01 00:09:18;;;;;;;121.63;50.65;;;-1.00;99.90;;;;;;4985467;28;20479;-87
2023/12/01 00:11:45;;;;;;;116.32;49.30;;;-0.90;99.90;;;;;;4991552;28;20018;-86
2023/12/01 00:14:11;;;;;;;114.45;50.55;;;-0.90;99.90;;;;;;4990959;28;20045;-86
2023/12/01 00:16:36;;;;;;;120.88;49.50;;;-0.90;99.90;;;;;;4987303;28;20391;-86
2023/12/01 00:19:02;;;;;;;123.13;52.33;;;-0.90;99.90;;;;;;4983756;28;20034;-87
2023/12/01 00:21:32;;;;;;;127.53;52.05;;;-0.80;99.90;;;;;;4984337;28;20039;-84
2023/12/01 00:24:00;;;;;;;135.70;53.35;;;-0.80;99.90;;;;;;4996735;28;20037;-83
2023/12/01 00:26:26;;;;;;;125.22;48.92;;;-0.70;99.90;;;;;;4994767;28;20030;-86
2023/12/01 00:28:51;;;;;;;137.88;53.42;;;-0.70;99.90;;;;;;4983479;28;20381;-86
2023/12/01 00:31:18;;;;;;;143.15;55.42;;;-0.70;99.90;;;;;;4990738;28;20054;-86
2023/12/01 00:33:44;;;;;;;137.60;53.70;;;-0.60;99.90;;;;;;4993068;28;20049;-87
2023/12/01 00:36:09;;;;;;;131.55;52.13;;;-0.60;99.90;;;;;;4993310;28;20038;-86
2023/12/01 00:38:35;;;;;;;141.27;55.60;;;-0.60;99.90;;;;;;4987833;28;20476;-86
2023/12/01 00:41:00;;;;;;;135.52;51.45;;;-0.60;99.90;;;;;;4988525;28;20475;-87
2023/12/01 00:43:26;;;;;;;162.38;59.33;;;-0.60;99.90;;;;;;4985631;28;20034;-87
2023/12/01 00:45:52;;;;;;;152.60;56.17;;;-0.70;99.90;;;;;;4998226;28;20022;-87
2023/12/01 00:48:20;;;;;;;136.82;53.88;;;-0.80;99.90;;;;;;4997152;28;20026;-84
2023/12/01 00:50:46;;;;;;;149.23;55.03;;;-0.80;99.90;;;;;;4990599;28;20061;-87
2023/12/01 00:53:11;;;;;;;161.00;61.30;;;-0.80;99.90;;;;;;4986177;28;20121;-87
2023/12/01 00:55:37;;;;;;;148.63;57.53;;;-0.80;99.90;;;;;;4988274;28;20392;-87
2023/12/01 00:58:03;;;;;;;144.77;53.53;;;-0.90;99.90;;;;;;4988289;28;20022;-85
2023/12/01 01:00:28;;;;;;;131.50;51.67;;;-0.80;99.90;;;;;;4987410;28;20038;-87
2023/12/01 01:02:54;;;;;;;117.13;51.65;;;-0.70;99.90;;;;;;4991533;28;20586;-87
2023/12/01 01:05:20;;;;;;;125.45;49.83;;;-0.80;99.90;;;;;;4991422;28;20034;-85
2023/12/01 01:07:45;;;;;;;131.95;53.88;;;-0.90;99.90;;;;;;4996079;28;20419;-87
2023/12/01 01:10:11;;;;;;;125.50;53.42;;;-0.90;99.90;;;;;;5003478;28;20395;-87
2023/12/01 01:12:37;;;;;;;127.82;54.10;;;-0.90;99.90;;;;;;5000910;28;20048;-87
2023/12/01 01:15:03;;;;;;;133.50;54.03;;;-1.00;99.90;;;;;;4987022;28;20026;-86
2023/12/01 01:17:35;;;;;;;107.20;47.15;;;-1.00;99.90;;;;;;4990428;28;20030;-88
2023/12/01 01:20:00;;;;;;;123.00;54.90;;;-1.00;99.90;;;;;;4991642;28;20049;-87
2023/12/01 01:22:26;;;;;;;141.82;56.30;;;-1.10;99.90;;;;;;4993030;28;20038;-88
2023/12/01 01:24:53;;;;;;;122.45;52.05;;;-1.10;99.90;;;;;;4994018;28;20035;-88
2023/12/01 01:27:19;;;;;;;113.57;50.75;;;-1.10;99.90;;;;;;4996256;28;20030;-87
2023/12/01 01:29:45;;;;;;;120.78;49.80;;;-1.10;99.90;;;;;;4992978;28;20103;-87
2023/12/01 01:32:14;;;;;;;123.82;52.25;;;-1.20;99.90;;;;;;4991683;28;20030;-87
2023/12/01 01:34:39;;;;;;;107.85;47.67;;;-1.30;99.90;;;;;;4998069;28;20053;-88
2023/12/01 01:37:07;;;;;;;141.32;55.05;;;-1.30;99.90;;;;;;4989153;28;20027;-86
2023/12/01 01:39:33;;;;;;;132.23;51.80;;;-1.40;99.90;;;;;;4994908;28;20038;-86
2023/12/01 01:41:58;;;;;;;138.48;54.00;;;-1.40;99.90;;;;;;4991784;28;20041;-87
2023/12/01 01:44:24;;;;;;;122.00;51.38;;;-1.40;99.90;;;;;;4997591;28;20399;-87
2023/12/01 01:46:50;;;;;;;111.03;47.60;;;-1.30;99.90;;;;;;4984208;28;20089;-87
2023/12/01 01:49:17;;;;;;;113.95;48.30;;;-1.40;99.90;;;;;;4988120;28;20074;-87
2023/12/01 01:51:44;;;;;;;115.18;47.22;;;-1.40;99.90;;;;;;4994705;28;20022;-88
2023/12/01 01:54:10;;;;;;;106.10;45.78;;;-1.40;99.90;;;;;;4987423;28;20141;-88
2023/12/01 01:56:37;;;;;;;109.13;45.17;;;-1.40;99.90;;;;;;4990614;28;20026;-87
2023/12/01 01:59:03;;;;;;;105.45;45.42;;;-1.50;99.90;;;;;;4986546;28;20030;-85
2023/12/01 02:01:29;;;;;;;143.65;47.58;;;-1.60;99.90;;;;;;4989446;28;20526;-85
2023/12/01 02:03:55;;;;;;;116.68;46.60;;;-1.60;99.90;;;;;;4996154;28;20030;-88
2023/12/01 02:06:30;;;;;;;104.13;42.22;;;-1.60;99.90;;;;;;4996297;28;20558;-87
2023/12/01 02:08:57;;;;;;;98.13;40.45;;;-1.50;99.90;;;;;;4982331;28;20056;-88
2023/12/01 02:11:25;;;;;;;101.03;39.90;;;-1.50;99.90;;;;;;4998592;28;20077;-86
2023/12/01 02:13:51;;;;;;;107.55;43.15;;;-1.50;99.90;;;;;;4992185;28;20053;-88
2023/12/01 02:16:17;;;;;;;117.13;45.60;;;-1.50;99.90;;;;;;4983803;28;20041;-88
2023/12/01 02:18:42;;;;;;;105.07;41.05;;;-1.40;99.90;;;;;;4991364;28;20002;-88
2023/12/01 02:21:08;;;;;;;98.38;40.78;;;-1.40;99.90;;;;;;4990953;28;20030;-88
2023/12/01 02:23:34;;;;;;;131.48;50.55;;;-1.30;99.90;;;;;;4993589;28;20015;-86
2023/12/01 02:26:00;;;;;;;109.68;45.78;;;-1.30;99.90;;;;;;4996139;28;20316;-88
2023/12/01 02:28:26;;;;;;;113.30;47.58;;;-1.40;99.90;;;;;;4983641;28;20030;-88
2023/12/01 02:30:56;;;;;;;118.82;47.03;;;-1.40;99.90;;;;;;4978696;28;20025;-89
2023/12/01 02:33:23;;;;;;;105.80;43.85;;;-1.40;99.90;;;;;;4997007;28;20042;-87
2023/12/01 02:35:53;;;;;;;100.70;42.03;;;-1.40;99.90;;;;;;4997783;28;20136;-86
2023/12/01 02:38:20;;;;;;;105.80;41.83;;;-1.50;99.90;;;;;;4990082;28;20072;-84
2023/12/01 02:40:51;;;;;;;103.95;41.30;;;-1.50;99.90;;;;;;4996464;28;20026;-87
2023/12/01 02:43:19;;;;;;;105.97;40.15;;;-1.50;99.90;;;;;;4993191;28;20394;-84
2023/12/01 02:45:46;;;;;;;105.75;41.38;;;-1.50;99.90;;;;;;4981646;28;20476;-88
2023/12/01 02:48:11;;;;;;;97.47;39.17;;;-1.40;99.90;;;;;;4989700;28;20034;-88
2023/12/01 02:50:38;;;;;;;102.68;41.75;;;-1.40;99.90;;;;;;4987756;28;20045;-87
2023/12/01 02:53:05;;;;;;;86.13;36.78;;;-1.40;99.90;;;;;;4998081;28;20030;-87
2023/12/01 02:55:31;;;;;;;75.55;31.92;;;-1.40;99.90;;;;;;4995533;28;20038;-88
2023/12/01 02:57:57;;;;;;;77.85;32.83;;;-1.30;99.90;;;;;;4985207;28;20027;-87
2023/12/01 03:00:22;;;;;;;79.15;31.63;;;-1.30;99.90;;;;;;4990734;28;20663;-88
2023/12/01 03:02:50;;;;;;;63.75;29.67;;;-1.40;99.90;;;;;;4983821;28;20035;-87
2023/12/01 03:05:16;;;;;;;77.93;32.35;;;-1.40;99.90;;;;;;4983961;28;20065;-87
2023/12/01 03:07:43;;;;;;;65.72;30.10;;;-1.50;99.90;;;;;;4987237;28;20053;-87
2023/12/01 03:10:09;;;;;;;76.00;30.70;;;-1.60;99.90;;;;;;4989975;28;20070;-88
2023/12/01 03:12:39;;;;;;;69.82;31.50;;;-1.50;99.90;;;;;;4987839;28;20472;-87
2023/12/01 03:15:07;;;;;;;66.03;29.83;;;-1.60;99.90;;;;;;4998986;28;20041;-87
2023/12/01 03:17:36;;;;;;;72.18;31.50;;;-1.60;99.90;;;;;;4990849;28;20035;-86
2023/12/01 03:20:10;;;;;;;68.47;28.92;;;-1.60;99.90;;;;;;4984093;28;20514;-86
2023/12/01 03:22:37;;;;;;;64.82;29.33;;;-1.60;99.90;;;;;;4987004;28;20030;-87
2023/12/01 03:25:03;;;;;;;72.75;30.05;;;-1.60;99.90;;;;;;4979202;28;20492;-87
2023/12/01 03:27:29;;;;;;;59.88;27.88;;;-1.60;99.90;;;;;;4993022;28;20105;-87
2023/12/01 03:29:54;;;;;;;68.28;28.40;;;-1.60;99.90;;;;;;4993333;28;20031;-89
2023/12/01 03:32:20;;;;;;;69.07;30.13;;;-1.60;99.90;;;;;;4992995;28;20044;-86
2023/12/01 03:34:46;;;;;;;60.67;27.70;;;-1.60;99.90;;;;;;4991597;28;20030;-88
2023/12/01 03:37:11;;;;;;;70.55;30.98;;;-1.70;99.90;;;;;;4982050;28;20035;-86
2023/12/01 03:39:37;;;;;;;68.65;31.95;;;-1.60;99.90;;;;;;4992879;28;20649;-87
2023/12/01 03:42:04;;;;;;;75.88;32.58;;;-1.70;99.90;;;;;;4995060;28;20037;-87
2023/12/01 03:44:32;;;;;;;75.07;34.47;;;-1.70;99.90;;;;;;4985829;28;20509;-85
2023/12/01 03:46:58;;;;;;;74.03;32.90;;;-1.70;99.90;;;;;;4976463;28;20030;-86
2023/12/01 03:49:23;;;;;;;71.00;32.63;;;-1.60;99.90;;;;;;4988788;28;20133;-88
2023/12/01 03:51:51;;;;;;;85.38;34.40;;;-1.60;99.90;;;;;;4990996;28;20393;-86
2023/12/01 03:54:19;;;;;;;78.82;34.40;;;-1.60;99.90;;;;;;4982509;28;20066;-86
2023/12/01 03:56:45;;;;;;;70.45;32.13;;;-1.60;99.90;;;;;;4981268;28;20484;-88
2023/12/01 03:59:11;;;;;;;81.50;35.90;;;-1.60;99.90;;;;;;4992402;28;20077;-88
2023/12/01 04:01:38;;;;;;;73.35;33.83;;;-1.60;99.90;;;;;;4988172;28;20035;-87
2023/12/01 04:04:04;;;;;;;70.85;34.33;;;-1.70;99.90;;;;;;4989370;28;20077;-87
2023/12/01 04:06:32;;;;;;;68.22;30.70;;;-1.70;99.90;;;;;;4986651;28;20491;-87
2023/12/01 04:09:03;;;;;;;63.33;29.02;;;-1.70;99.90;;;;;;4981838;28;20142;-88
2023/12/01 04:11:29;;;;;;;58.88;28.85;;;-1.70;99.90;;;;;;4977002;28;20105;-87
2023/12/01 04:13:55;;;;;;;58.00;29.40;;;-1.70;99.90;;;;;;4994050;28;20321;-88
2023/12/01 04:16:24;;;;;;;70.50;30.65;;;-1.70;99.90;;;;;;4999990;28;20562;-87
2023/12/01 04:18:53;;;;;;;64.00;31.27;;;-1.70;99.90;;;;;;4980361;28;20030;-86
2023/12/01 04:21:19;;;;;;;63.80;29.95;;;-1.70;99.90;;;;;;4990856;28;20033;-87
2023/12/01 04:23:44;;;;;;;66.60;30.00;;;-1.70;99.90;;;;;;4986693;28;20026;-87
2023/12/01 04:26:12;;;;;;;63.55;29.42;;;-1.60;99.90;;;;;;4988181;28;20375;-88
2023/12/01 04:28:38;;;;;;;59.45;28.98;;;-1.70;99.90;;;;;;4995524;28;20488;-88
2023/12/01 04:31:05;;;;;;;59.78;28.55;;;-1.80;99.90;;;;;;4988629;28;20034;-88
2023/12/01 04:33:31;;;;;;;59.22;28.40;;;-1.80;99.90;;;;;;4989787;28;20499;-88
2023/12/01 04:35:56;;;;;;;59.20;28.60;;;-1.80;99.90;;;;;;4992203;28;20022;-88
2023/12/01 04:38:22;;;;;;;59.03;28.77;;;-1.80;99.90;;;;;;4981284;28;20046;-86
2023/12/01 04:40:48;;;;;;;57.17;27.30;;;-1.90;99.90;;;;;;4989268;28;20036;-86
2023/12/01 04:43:19;;;;;;;62.28;29.90;;;-1.90;99.90;;;;;;4985526;28;20022;-86
2023/12/01 04:45:44;;;;;;;57.47;27.05;;;-1.90;99.90;;;;;;4984219;28;20037;-87
2023/12/01 04:48:10;;;;;;;54.15;25.05;;;-1.90;99.90;;;;;;4981224;28;20034;-88
2023/12/01 04:50:46;;;;;;;55.17;26.88;;;-2.00;99.90;;;;;;4976909;28;20400;-88
2023/12/01 04:53:12;;;;;;;57.13;26.70;;;-1.90;99.90;;;;;;4969242;28;20523;-86
2023/12/01 04:55:39;;;;;;;54.75;26.17;;;-2.00;99.90;;;;;;4987115;28;20033;-84
2023/12/01 04:58:05;;;;;;;58.13;27.02;;;-2.00;99.90;;;;;;4981941;28;20042;-85
2023/12/01 05:00:31;;;;;;;58.72;26.85;;;-2.00;99.90;;;;;;4982215;28;20034;-86
2023/12/01 05:03:05;;;;;;;58.95;28.08;;;-2.00;99.90;;;;;;4982258;28;20030;-85
2023/12/01 05:05:32;;;;;;;57.75;25.65;;;-2.00;99.90;;;;;;4986539;28;20031;-88
2023/12/01 05:08:00;;;;;;;52.38;24.95;;;-2.00;99.90;;;;;;4978109;28;20053;-87
2023/12/01 05:10:34;;;;;;;53.50;25.45;;;-2.00;99.90;;;;;;4982397;28;20041;-87
2023/12/01 05:13:05;;;;;;;59.17;27.42;;;-2.10;99.90;;;;;;4972803;28;20047;-86
2023/12/01 05:15:36;;;;;;;63.47;26.20;;;-2.10;99.90;;;;;;4988595;28;20101;-86
2023/12/01 05:18:06;;;;;;;59.35;27.38;;;-2.10;99.90;;;;;;4983860;28;20050;-86
2023/12/01 05:20:37;;;;;;;59.28;25.00;;;-2.10;99.90;;;;;;4980930;28;20393;-88
2023/12/01 05:23:10;;;;;;;53.17;24.08;;;-2.10;99.90;;;;;;4990123;28;20026;-85
2023/12/01 05:25:43;;;;;;;49.65;24.27;;;-2.10;99.90;;;;;;4991024;28;20037;-87
2023/12/01 05:28:12;;;;;;;55.22;24.67;;;-2.10;99.90;;;;;;4987159;28;20273;-87
2023/12/01 05:30:43;;;;;;;49.30;23.15;;;-2.00;99.90;;;;;;4994474;28;20045;-88
2023/12/01 05:33:09;;;;;;;39.75;19.48;;;-2.00;99.90;;;;;;4989055;28;20141;-87
2023/12/01 05:35:37;;;;;;;44.35;19.58;;;-2.00;99.90;;;;;;4981450;28;20042;-86
2023/12/01 05:38:06;;;;;;;42.03;18.95;;;-2.00;99.90;;;;;;4981406;28;20101;-87
2023/12/01 05:40:35;;;;;;;36.22;17.90;;;-2.00;99.90;;;;;;4976485;28;20469;-87
2023/12/01 05:43:02;;;;;;;46.70;20.02;;;-2.00;99.90;;;;;;5000561;28;20038;-86
2023/12/01 05:45:32;;;;;;;46.40;21.08;;;-2.00;99.90;;;;;;4988982;28;20379;-87
2023/12/01 05:48:06;;;;;;;43.60;19.90;;;-2.00;99.90;;;;;;4979758;28;20030;-85
2023/12/01 05:50:35;;;;;;;46.20;19.30;;;-1.90;99.90;;;;;;4988989;28;20166;-85
2023/12/01 05:53:06;;;;;;;75.30;26.30;;;-1.90;99.90;;;;;;4982684;28;20044;-87
2023/12/01 05:55:33;;;;;;;61.67;25.15;;;-1.80;99.90;;;;;;4986149;28;20516;-86
2023/12/01 05:58:02;;;;;;;62.20;25.58;;;-1.90;99.90;;;;;;4989646;28;20250;-87
2023/12/01 06:00:29;;;;;;;63.20;24.58;;;-1.80;99.90;;;;;;4978543;28;20034;-87
2023/12/01 06:03:08;;;;;;;59.40;23.92;;;-1.80;99.90;;;;;;4991656;28;20042;-85
2023/12/01 06:05:35;;;;;;;61.22;24.33;;;-1.80;99.90;;;;;;4979137;28;20030;-85
2023/12/01 06:08:02;;;;;;;54.38;23.90;;;-1.80;99.90;;;;;;4991116;28;20107;-87
2023/12/01 06:10:30;;;;;;;51.33;22.70;;;-1.80;99.90;;;;;;4989566;28;20030;-87
2023/12/01 06:12:56;;;;;;;41.92;20.17;;;-1.80;99.90;;;;;;4985557;28;20030;-87
2023/12/01 06:15:24;;;;;;;48.90;20.98;;;-1.80;99.90;;;;;;4984865;28;20169;-87
2023/12/01 06:17:51;;;;;;;48.20;19.42;;;-1.90;99.90;;;;;;4981787;28;20033;-85
2023/12/01 06:20:19;;;;;;;52.08;23.70;;;-2.00;99.90;;;;;;4994546;28;20033;-87
2023/12/01 06:22:46;;;;;;;49.78;21.75;;;-2.10;99.90;;;;;;4987866;28;20050;-87
2023/12/01 06:25:16;;;;;;;47.08;21.35;;;-2.10;99.90;;;;;;4975065;28;20027;-86
2023/12/01 06:27:42;;;;;;;49.25;21.30;;;-2.10;99.90;;;;;;4982904;28;20042;-86
2023/12/01 06:30:12;;;;;;;49.55;21.02;;;-2.10;99.90;;;;;;4991848;28;20427;-87
2023/12/01 06:32:50;;;;;;;46.90;20.40;;;-2.20;99.90;;;;;;4984368;28;20224;-87
2023/12/01 06:35:20;;;;;;;49.92;22.10;;;-2.10;99.90;;;;;;4981423;28;20030;-86
2023/12/01 06:37:47;;;;;;;61.17;23.88;;;-2.10;99.90;;;;;;4984147;28;20037;-87
2023/12/01 06:40:20;;;;;;;55.50;23.30;;;-2.20;99.90;;;;;;4984156;28;20360;-87
2023/12/01 06:42:51;;;;;;;50.30;21.98;;;-2.30;99.90;;;;;;4979652;28;20494;-88
2023/12/01 06:45:21;;;;;;;45.88;21.52;;;-2.30;99.90;;;;;;4986952;28;20031;-88
2023/12/01 06:47:48;;;;;;;54.63;23.08;;;-2.30;99.90;;;;;;4984281;28;20035;-87
2023/12/01 06:50:18;;;;;;;50.75;21.60;;;-2.30;99.90;;;;;;4974994;28;20100;-87
2023/12/01 06:53:15;;;;;;;65.38;24.10;;;-2.30;99.90;;;;;;4986233;28;21230;-88
2023/12/01 06:55:40;;;;;;;61.63;25.85;;;-2.30;99.90;;;;;;4976317;28;20034;-87
2023/12/01 06:58:09;;;;;;;66.60;26.48;;;-2.20;99.90;;;;;;4976951;28;20118;-87
2023/12/01 07:00:36;;;;;;;53.70;23.80;;;-2.20;99.90;;;;;;4981537;28;20033;-87
2023/12/01 07:03:04;;;;;;;59.42;25.33;;;-2.20;99.90;;;;;;4985243;28;20151;-87
2023/12/01 07:05:31;;;;;;;63.80;27.92;;;-2.30;99.90;;;;;;4986438;28;20114;-87
2023/12/01 07:07:58;;;;;;;60.10;26.65;;;-2.30;99.90;;;;;;4991011;28;20017;-87
2023/12/01 07:10:29;;;;;;;56.05;24.75;;;-2.30;99.90;;;;;;4991227;28;20042;-87
2023/12/01 07:12:54;;;;;;;59.83;23.25;;;-2.20;99.90;;;;;;4981858;28;20042;-87
2023/12/01 07:15:21;;;;;;;52.13;23.13;;;-2.20;99.90;;;;;;4983468;28;20118;-87
2023/12/01 07:17:52;;;;;;;59.40;25.42;;;-2.20;99.90;;;;;;4980686;28;20038;-87
2023/12/01 07:20:19;;;;;;;58.70;22.83;;;-2.20;99.90;;;;;;4981935;28;20018;-87
2023/12/01 07:22:46;;;;;;;53.00;24.60;;;-2.20;99.90;;;;;;4984283;28;20384;-87
2023/12/01 07:25:21;;;;;;;54.72;24.48;;;-2.10;99.90;;;;;;4983081;28;20022;-87
2023/12/01 07:27:52;;;;;;;;;;;-2.10;99.90;;;;;;4985385;28;20037;-87
2023/12/01 07:30:20;;;;;;;54.95;22.95;;;-2.10;99.90;;;;;;4993281;28;19909;-86
2023/12/01 07:32:47;;;;;;;60.88;25.20;;;-2.10;99.90;;;;;;4984719;28;20026;-87
2023/12/01 07:35:14;;;;;;;62.75;28.80;;;-2.00;99.90;;;;;;4985912;28;20039;-87
2023/12/01 07:37:42;;;;;;;54.20;26.48;;;-2.00;99.90;;;;;;4987420;28;20495;-88
2023/12/01 07:40:19;;;;;;;52.67;24.15;;;-2.10;99.90;;;;;;4999260;28;20301;-87
2023/12/01 07:42:45;;;;;;;69.95;26.33;;;-2.10;99.90;;;;;;4980007;28;20026;-87
2023/12/01 07:45:14;;;;;;;64.57;29.45;;;-2.00;99.90;;;;;;4988905;28;20072;-87
2023/12/01 07:47:39;;;;;;;71.40;28.65;;;-2.00;99.90;;;;;;4985834;28;20038;-87
2023/12/01 07:50:07;;;;;;;81.03;31.08;;;-1.90;99.90;;;;;;4993486;28;20484;-87
2023/12/01 07:52:35;;;;;;;79.93;32.47;;;-2.00;99.90;;;;;;4996146;28;20093;-88
2023/12/01 07:55:00;;;;;;;76.05;30.05;;;-1.90;99.90;;;;;;5003764;28;20038;-88
2023/12/01 07:57:26;;;;;;;78.65;32.65;;;-1.90;99.90;;;;;;4990285;28;20037;-86
2023/12/01 07:59:52;;;;;;;81.45;34.20;;;-1.90;99.90;;;;;;4982768;28;20050;-88
2023/12/01 08:02:20;;;;;;;94.30;38.50;;;-1.90;99.90;;;;;;4990790;28;20121;-87
2023/12/01 08:04:46;;;;;;;89.85;39.50;;;-1.90;99.90;;;;;;4996458;28;20030;-87
2023/12/01 08:07:12;;;;;;;80.47;34.13;;;-1.90;99.90;;;;;;5000464;28;20455;-87
2023/12/01 08:09:37;;;;;;;82.53;33.08;;;-1.90;99.90;;;;;;4985806;28;20041;-87
2023/12/01 08:12:04;;;;;;;76.78;31.27;;;-1.90;99.90;;;;;;4998953;28;20368;-87
2023/12/01 08:14:29;;;;;;;72.47;31.02;;;-1.90;99.90;;;;;;4991281;28;20046;-87
2023/12/01 08:16:56;;;;;;;75.30;29.77;;;-2.00;99.90;;;;;;4996745;28;20030;-88
2023/12/01 08:19:22;;;;;;;75.20;31.05;;;-2.00;99.90;;;;;;4994343;28;20030;-87
2023/12/01 08:21:49;;;;;;;78.53;31.85;;;-1.90;99.90;;;;;;5003210;28;20225;-87
2023/12/01 08:24:17;;;;;;;72.32;30.70;;;-2.00;99.90;;;;;;4997413;28;20384;-87
2023/12/01 08:26:43;;;;;;;76.10;31.63;;;-2.00;99.90;;;;;;4992443;28;20082;-87
2023/12/01 08:29:08;;;;;;;83.50;35.25;;;-2.00;99.90;;;;;;4997431;28;20985;-87
2023/12/01 08:31:35;;;;;;;69.97;30.25;;;-2.00;99.90;;;;;;4990946;28;20028;-88
2023/12/01 08:34:00;;;;;;;81.53;31.85;;;-2.00;99.90;;;;;;4998397;28;20042;-87
2023/12/01 08:36:26;;;;;;;81.07;32.47;;;-2.00;99.90;;;;;;4990663;28;20034;-87
2023/12/01 08:38:52;;;;;;;83.78;33.13;;;-2.00;99.90;;;;;;4994132;28;20065;-87
2023/12/01 08:41:18;;;;;;;90.93;36.63;;;-2.00;99.90;;;;;;4991654;28;20080;-87
2023/12/01 08:43:44;;;;;;;83.20;32.53;;;-2.00;99.90;;;;;;4982287;28;20424;-87
2023/12/01 08:46:10;;;;;;;85.35;35.72;;;-2.00;99.90;;;;;;4976476;28;20035;-87
2023/12/01 08:48:35;;;;;;;82.80;34.95;;;-1.90;99.90;;;;;;4991170;28;20041;-87
2023/12/01 08:51:02;;;;;;;79.47;34.50;;;-1.80;99.90;;;;;;4983722;28;20475;-87
2023/12/01 08:53:28;;;;;;;77.07;32.25;;;-1.90;99.90;;;;;;4983464;28;20045;-87
2023/12/01 08:55:55;;;;;;;74.93;31.00;;;-1.90;99.90;;;;;;5000311;28;20049;-87
2023/12/01 08:58:22;;;;;;;75.82;31.80;;;-1.80;99.90;;;;;;5000519;28;20395;-87
2023/12/01 09:00:47;;;;;;;81.80;33.65;;;-1.80;99.90;;;;;;4993394;28;20022;-87
2023/12/01 09:03:13;;;;;;;80.75;32.20;;;-1.80;99.90;;;;;;4994743;28;20085;-87
2023/12/01 09:05:39;;;;;;;78.78;31.35;;;-1.80;99.90;;;;;;4980912;28;20030;-87
2023/12/01 09:08:05;;;;;;;76.82;31.20;;;-1.80;99.90;;;;;;4981762;28;20033;-90
2023/12/01 09:10:32;;;;;;;73.80;31.67;;;-1.80;99.90;;;;;;4989314;28;20116;-87
2023/12/01 09:12:58;;;;;;;72.25;29.35;;;-1.80;99.90;;;;;;4994480;28;20048;-87
2023/12/01 09:15:24;;;;;;;66.97;28.20;;;-1.70;99.90;;;;;;4990603;28;20030;-87
2023/12/01 09:17:51;;;;;;;63.38;27.00;;;-1.70;99.90;;;;;;4983763;28;20077;-87
2023/12/01 09:20:17;;;;;;;55.42;25.58;;;-1.70;99.90;;;;;;4989721;28;20487;-87
2023/12/01 09:22:43;;;;;;;54.75;24.38;;;-1.60;99.90;;;;;;4995625;28;20028;-87
2023/12/01 09:25:09;;;;;;;55.88;25.23;;;-1.60;99.90;;;;;;4986266;28;20089;-87
2023/12/01 09:27:37;;;;;;;53.53;25.67;;;-1.50;99.90;;;;;;4992234;28;20030;-87
2023/12/01 09:30:04;;;;;;;53.30;25.00;;;-1.50;99.90;;;;;;4991808;28;20109;-87
2023/12/01 09:32:30;;;;;;;56.28;26.63;;;-1.50;99.90;;;;;;4985845;28;20038;-87
2023/12/01 09:34:55;;;;;;;60.85;27.25;;;-1.50;99.90;;;;;;4972864;28;20380;-87
2023/12/01 09:37:23;;;;;;;62.40;25.48;;;-1.50;99.90;;;;;;4980016;28;20037;-87
2023/12/01 09:39:49;;;;;;;62.63;25.38;;;-1.50;99.90;;;;;;4991763;28;20050;-87
2023/12/01 09:42:16;;;;;;;54.30;24.23;;;-1.50;99.90;;;;;;4985033;28;20030;-87
2023/12/01 09:44:43;;;;;;;54.63;25.20;;;-1.50;99.90;;;;;;4989597;28;20068;-88
2023/12/01 09:47:12;;;;;;;58.42;25.98;;;-1.50;99.90;;;;;;4981915;28;20255;-87
2023/12/01 09:49:39;;;;;;;55.88;25.55;;;-1.50;99.90;;;;;;4976680;28;20116;-87
2023/12/01 09:52:05;;;;;;;62.55;26.42;;;-1.50;99.90;;;;;;4998447;28;20030;-87
2023/12/01 09:54:31;;;;;;;56.50;25.33;;;-1.50;99.90;;;;;;4988859;28;20117;-87
2023/12/01 09:57:06;;;;;;;57.40;26.98;;;-1.50;99.90;;;;;;4988103;28;20050;-87
2023/12/01 09:59:36;;;;;;;59.13;25.08;;;-1.50;99.90;;;;;;4996810;28;20030;-86
2023/12/01 10:02:02;;;;;;;60.50;26.17;;;-1.50;99.90;;;;;;4978869;28;20037;-86
2023/12/01 10:04:31;;;;;;;57.85;25.15;;;-1.50;99.90;;;;;;4975768;28;20038;-87
2023/12/01 10:06:57;;;;;;;60.20;26.48;;;-1.40;99.90;;;;;;4979134;28;20030;-87
2023/12/01 10:09:28;;;;;;;60.40;26.02;;;-1.40;99.90;;;;;;4990425;28;20031;-87
2023/12/01 10:12:10;;;;;;;57.63;25.65;;;-1.40;99.90;;;;;;4992194;28;20566;-86
2023/12/01 10:14:37;;;;;;;44.20;22.25;;;-1.40;99.90;;;;;;4994753;28;20042;-87
2023/12/01 10:17:04;;;;;;;51.17;23.25;;;-1.40;99.90;;;;;;4994697;28;20029;-87
2023/12/01 10:19:47;;;;;;;47.63;21.92;;;-1.40;99.90;;;;;;4990182;28;20564;-86
2023/12/01 10:22:13;;;;;;;51.58;23.05;;;-1.40;99.90;;;;;;4993240;28;20030;-87
2023/12/01 10:24:39;;;;;;;49.08;22.10;;;-1.40;99.90;;;;;;4990997;28;20026;-87
2023/12/01 10:27:08;;;;;;;46.90;22.63;;;-1.50;99.90;;;;;;4984708;28;20387;-87
2023/12/01 10:29:34;;;;;;;42.78;21.50;;;-1.40;99.90;;;;;;4986846;28;20383;-86
2023/12/01 10:32:02;;;;;;;47.17;22.48;;;-1.40;99.90;;;;;;4993492;28;20037;-87
2023/12/01 10:34:28;;;;;;;49.78;23.60;;;-1.40;99.90;;;;;;4991291;28;20046;-87
2023/12/01 10:36:56;;;;;;;51.55;23.83;;;-1.40;99.90;;;;;;4983085;28;20085;-87
2023/12/01 10:39:27;;;;;;;52.55;24.35;;;-1.30;99.90;;;;;;4983718;28;20080;-87
2023/12/01 10:41:55;;;;;;;57.78;24.30;;;-1.40;99.90;;;;;;4983393;28;20147;-87
2023/12/01 10:44:27;;;;;;;52.25;22.30;;;-1.40;99.90;;;;;;4988248;28;20041;-87
2023/12/01 10:47:00;;;;;;;48.88;23.25;;;-1.40;99.90;;;;;;4987237;28;20031;-86
2023/12/01 10:49:26;;;;;;;43.97;22.75;;;-1.30;99.90;;;;;;4984009;28;20038;-87
2023/12/01 10:51:55;;;;;;;50.20;21.42;;;-1.40;99.90;;;;;;4988275;28;20026;-87
2023/12/01 10:54:24;;;;;;;49.78;23.52;;;-1.30;99.90;;;;;;4983399;28;20038;-87
2023/12/01 10:57:11;;;;;;;52.08;24.15;;;-1.30;99.90;;;;;;4988525;28;20052;-87
2023/12/01 10:59:38;;;;;;;53.38;23.52;;;-1.30;99.90;;;;;;4993198;28;20038;-87
2023/12/01 11:02:05;;;;;;;50.38;23.33;;;-1.30;99.90;;;;;;4989240;28;20085;-86
2023/12/01 11:04:33;;;;;;;51.38;22.83;;;-1.30;99.90;;;;;;4982745;28;20424;-86
2023/12/01 11:07:30;;;;;;;53.28;23.83;;;-1.30;99.90;;;;;;4982432;28;20053;-86
2023/12/01 11:10:22;;;;;;;51.05;23.75;;;-1.30;99.90;;;;;;4985931;28;20073;-85
2023/12/01 11:13:06;;;;;;;54.00;25.23;;;-1.30;99.90;;;;;;4996212;28;20050;-86
2023/12/01 11:15:34;;;;;;;47.28;21.40;;;-1.20;99.90;;;;;;4998541;28;20034;-86
2023/12/01 11:18:00;;;;;;;49.83;21.25;;;-1.20;99.90;;;;;;4996724;28;20033;-86
2023/12/01 11:20:46;;;;;;;49.03;22.65;;;-1.20;99.90;;;;;;4992723;28;20031;-87
2023/12/01 11:23:12;;;;;;;50.58;23.08;;;-1.20;99.90;;;;;;4975439;28;20166;-86
2023/12/01 11:25:50;;;;;;;48.40;22.77;;;-1.10;99.90;;;;;;4981671;28;20101;-86
2023/12/01 11:28:27;;;;;;;43.78;19.88;;;-1.10;99.90;;;;;;4989464;28;20077;-87
2023/12/01 11:31:28;;;;;;;47.25;20.50;;;-1.10;99.90;;;;;;4988503;28;20069;-87
2023/12/01 11:33:57;;;;;;;56.55;24.35;;;-1.10;99.90;;;;;;4981979;28;20069;-87
2023/12/01 11:36:28;;;;;;;43.78;20.30;;;-1.10;99.90;;;;;;4972639;28;20027;-86
2023/12/01 11:39:14;;;;;;;40.42;19.83;;;-1.10;99.90;;;;;;4984300;28;20054;-86
2023/12/01 11:41:42;;;;;;;37.33;19.05;;;-1.20;99.90;;;;;;4979481;28;20093;-87
2023/12/01 11:44:18;;;;;;;39.15;16.77;;;-1.10;99.90;;;;;;4983819;28;20018;-88
2023/12/01 11:46:55;;;;;;;31.48;15.63;;;-1.10;99.90;;;;;;4984541;28;20045;-87
2023/12/01 11:49:36;;;;;;;33.22;15.45;;;-1.20;99.90;;;;;;4978490;28;20026;-86
2023/12/01 11:52:04;;;;;;;37.42;16.25;;;-1.20;99.90;;;;;;4984561;28;20110;-87
2023/12/01 11:54:37;;;;;;;28.90;14.77;;;-1.30;99.90;;;;;;4988896;28;20077;-86
2023/12/01 11:57:07;;;;;;;34.30;16.08;;;-1.30;99.90;;;;;;4976931;28;20045;-87
2023/12/01 11:59:34;;;;;;;35.67;15.60;;;-1.30;99.90;;;;;;4981843;28;20031;-87
2023/12/01 12:02:01;;;;;;;39.80;17.33;;;-1.30;99.90;;;;;;4985647;28;20034;-87
2023/12/01 12:04:28;;;;;;;38.22;18.50;;;-1.30;99.90;;;;;;4985084;28;20033;-87
2023/12/01 12:06:54;;;;;;;35.25;17.63;;;-1.20;99.90;;;;;;4992544;28;20056;-87
2023/12/01 12:09:21;;;;;;;45.03;19.38;;;-1.20;99.90;;;;;;4976043;28;20065;-87
2023/12/01 12:11:52;;;;;;;48.08;19.23;;;-1.20;99.90;;;;;;4992703;28;20375;-87
2023/12/01 12:14:38;;;;;;;42.35;19.05;;;-1.20;99.90;;;;;;4982037;28;20487;-87
2023/12/01 12:17:04;;;;;;;55.22;22.55;;;-1.20;99.90;;;;;;4994987;28;20035;-87
2023/12/01 12:19:40;;;;;;;52.00;21.42;;;-1.20;99.90;;;;;;4982662;28;20108;-87
2023/12/01 12:22:05;;;;;;;45.60;20.55;;;-1.20;99.90;;;;;;4987374;28;20030;-86
2023/12/01 12:24:31;;;;;;;40.55;18.40;;;-1.20;99.90;;;;;;4985137;28;20032;-88
2023/12/01 12:26:57;;;;;;;44.80;20.00;;;-1.20;99.90;;;;;;4979468;28;20026;-86
2023/12/01 12:29:25;;;;;;;42.83;17.92;;;-1.20;99.90;;;;;;4985134;28;20026;-87
2023/12/01 12:31:51;;;;;;;36.35;17.63;;;-1.20;99.90;;;;;;4988798;28;20396;-87